Time;durP1;ratioP1;P1;durP2;ratioP2;P2;SDS_P1;SDS_P2;PMS_P1;PMS_P2;Temp;Humidity;BMP_temperature;BMP_pressure;BME280_temperature;BME280_humidity;BME280_pressure;Samples;Min_cycle;Max_cycle;Signal;HPM_P1;HPM_P2
2023/07/12 00:01:10;;;;;;;7.40;1.60;;;;;;;-145.18;100.00;46640.88;5071576;28;20037;-65
2023/07/12 00:03:35;;;;;;;6.30;1.53;;;;;;;-145.18;100.00;46642.81;5071109;28;20499;-65
2023/07/12 00:06:01;;;;;;;8.03;1.50;;;;;;;-145.18;100.00;46642.81;5073852;28;20028;-65
2023/07/12 00:08:29;;;;;;;7.33;1.93;;;;;;;-145.18;100.00;46642.81;5080738;28;20106;-65
2023/07/12 00:10:57;;;;;;;5.40;1.63;;;;;;;-145.18;100.00;46679.94;5081652;28;20027;-66
2023/07/12 00:13:23;;;;;;;5.00;1.73;;;;;;;-145.18;100.00;46640.88;5061225;28;20552;-65
2023/07/12 00:15:50;;;;;;;5.83;1.83;;;;;;;-145.18;100.00;46642.81;5074408;28;20060;-65
2023/07/12 00:18:23;;;;;;;6.60;1.60;;;;;;;-145.18;100.00;46660.41;5074654;28;20060;-65
2023/07/12 00:20:50;;;;;;;6.40;1.47;;;;;;;-145.18;100.00;46660.41;5074874;28;20036;-66
2023/07/12 00:23:17;;;;;;;6.67;1.63;;;;;;;-145.18;100.00;46644.78;5075273;28;20042;-67
2023/07/12 00:25:44;;;;;;;4.93;1.60;;;;;;;-145.18;100.00;46679.94;5075254;28;20107;-67
2023/07/12 00:28:30;;;;;;;7.57;1.77;;;;;;;-145.18;100.00;46660.41;5074525;28;20497;-66
2023/07/12 00:30:56;;;;;;;7.40;1.70;;;;;;;-145.18;100.00;46660.41;5073822;28;20492;-66
2023/07/12 00:33:22;;;;;;;3.40;1.57;;;;;;;-145.18;100.00;46644.78;5067564;28;20040;-66
2023/07/12 00:35:49;;;;;;;4.17;1.33;;;;;;;-145.18;100.00;46677.97;5074507;28;20027;-66
2023/07/12 00:38:20;;;;;;;4.30;1.53;;;;;;;-145.18;100.00;46660.41;5074399;28;20437;-66
2023/07/12 00:40:54;;;;;;;5.00;2.03;;;;;;;-145.18;100.00;46660.41;5074542;28;20431;-66
2023/07/12 00:43:39;;;;;;;7.30;1.60;;;;;;;-145.18;100.00;46679.94;5074222;28;20109;-66
2023/07/12 00:46:32;;;;;;;9.23;2.13;;;;;;;-145.18;100.00;46679.94;5063897;28;20115;-66
2023/07/12 00:48:57;;;;;;;8.97;2.23;;;;;;;-145.18;100.00;46677.97;5068274;28;20511;-69
2023/07/12 00:51:28;;;;;;;6.13;1.83;;;;;;;-145.18;100.00;46677.97;5074700;28;20045;-69
2023/07/12 00:53:55;;;;;;;14.83;2.10;;;;;;;-145.18;100.00;46679.94;5074333;28;20032;-70
2023/07/12 00:56:20;;;;;;;6.00;1.50;;;;;;;-145.18;100.00;46677.97;5074339;28;20588;-68
2023/07/12 00:58:52;;;;;;;7.00;1.93;;;;;;;-145.18;100.00;46660.41;5073551;28;20028;-69
2023/07/12 01:01:18;;;;;;;16.23;2.27;;;;;;;-145.18;100.00;46660.41;5073791;28;20040;-69
2023/07/12 01:03:45;;;;;;;9.73;2.20;;;;;;;-145.18;100.00;46660.41;5074176;28;20032;-69
2023/07/12 01:06:15;;;;;;;8.33;1.70;;;;;;;-145.18;100.00;46660.41;5073865;28;20503;-70
2023/07/12 01:08:43;;;;;;;10.03;2.60;;;;;;;-145.18;100.00;46660.41;5086044;28;20142;-69
2023/07/12 01:11:12;;;;;;;7.47;1.93;;;;;;;-145.18;100.00;46660.41;5074707;28;20495;-69
2023/07/12 01:13:42;;;;;;;11.50;2.23;;;;;;;-145.18;100.00;46660.41;5093937;28;20030;-72
2023/07/12 01:16:08;;;;;;;6.53;2.07;;;;;;;-145.18;100.00;46660.41;5076855;28;20108;-71
2023/07/12 01:18:33;;;;;;;3.53;1.63;;;;;;;-145.18;100.00;46660.41;5084407;28;20115;-70
2023/07/12 01:21:09;;;;;;;7.53;2.37;;;;;;;-145.18;100.00;46660.41;5073854;28;20024;-70
2023/07/12 01:23:34;;;;;;;10.37;2.13;;;;;;;-145.18;100.00;46660.41;5074008;28;20028;-72
2023/07/12 01:26:20;;;;;;;10.53;2.50;;;;;;;-145.18;100.00;46660.41;5073188;28;20051;-71
2023/07/12 01:28:49;;;;;;;9.65;2.58;;;;;;;-145.18;100.00;46660.41;5073674;28;20060;-72
2023/07/12 01:31:16;;;;;;;6.20;1.80;;;;;;;-145.18;100.00;46660.41;5074025;28;20060;-71
2023/07/12 01:33:41;;;;;;;8.43;2.57;;;;;;;-145.18;100.00;46660.41;5074199;28;20392;-71
2023/07/12 01:36:07;;;;;;;10.90;3.00;;;;;;;-145.18;100.00;46660.41;5073647;28;20032;-71
2023/07/12 01:38:32;;;;;;;6.13;2.27;;;;;;;-145.18;100.00;46660.41;5073667;28;20034;-72
2023/07/12 01:40:58;;;;;;;6.90;2.03;;;;;;;-145.18;100.00;46660.41;5073543;28;20032;-71
2023/07/12 01:43:23;;;;;;;7.90;2.53;;;;;;;-145.18;100.00;46660.41;5088918;28;20067;-69
2023/07/12 01:45:48;;;;;;;9.67;2.17;;;;;;;-145.18;100.00;46660.41;5072933;28;20075;-68
2023/07/12 01:48:14;;;;;;;9.73;2.20;;;;;;;-145.18;100.00;46660.41;5073114;28;20505;-68
2023/07/12 01:50:41;;;;;;;6.27;2.47;;;;;;;-145.18;100.00;46660.41;5054693;28;20029;-68
2023/07/12 01:53:07;;;;;;;7.17;2.07;;;;;;;-145.18;100.00;46660.41;5089146;28;20031;-68
2023/07/12 01:55:33;;;;;;;6.40;2.30;;;;;;;-145.18;100.00;46660.41;5054612;28;20036;-68
2023/07/12 01:57:58;;;;;;;9.57;2.47;;;;;;;-145.18;100.00;46658.44;5072698;28;20385;-69
2023/07/12 02:00:23;;;;;;;4.93;1.70;;;;;;;-145.18;100.00;46660.41;5073200;28;20060;-68
2023/07/12 02:02:49;;;;;;;6.07;2.00;;;;;;;-145.18;100.00;46660.41;5074204;28;20028;-68
2023/07/12 02:05:14;;;;;;;7.50;2.10;;;;;;;-145.18;100.00;46660.41;5078682;28;20173;-68
2023/07/12 02:07:40;;;;;;;7.53;2.47;;;;;;;-145.18;100.00;46660.41;5108349;28;20597;-68
2023/07/12 02:10:17;;;;;;;9.03;2.83;;;;;;;-145.18;100.00;46660.41;5086435;28;20528;-68
2023/07/12 02:12:43;;;;;;;5.47;2.33;;;;;;;-145.18;100.00;46660.41;5085649;28;20028;-68
2023/07/12 02:15:11;;;;;;;3.70;2.03;;;;;;;-145.18;100.00;46660.41;5073837;28;20024;-63
2023/07/12 02:17:37;;;;;;;11.07;3.13;;;;;;;-145.18;100.00;46660.41;5072275;28;20073;-64
2023/07/12 02:20:04;;;;;;;6.30;2.50;;;;;;;-145.18;100.00;46660.41;5079546;28;20025;-63
2023/07/12 02:22:30;;;;;;;7.37;2.50;;;;;;;-145.18;100.00;46660.41;5090474;28;20059;-63
2023/07/12 02:24:56;;;;;;;8.60;2.77;;;;;;;-145.18;100.00;46660.41;5090536;28;20028;-63
2023/07/12 02:27:21;;;;;;;6.83;2.90;;;;;;;-145.18;100.00;46658.44;5090428;28;20024;-63
2023/07/12 02:29:47;;;;;;;5.87;2.87;;;;;;;-145.18;100.00;46658.44;5091331;28;20031;-63
2023/07/12 02:32:12;;;;;;;10.60;3.53;;;;;;;-145.18;100.00;46660.41;5071529;28;20028;-63
2023/07/12 02:34:38;;;;;;;15.00;3.50;;;;;;;-145.18;100.00;46660.41;5083163;28;20098;-63
2023/07/12 02:37:03;;;;;;;10.57;3.10;;;;;;;-145.18;100.00;46660.41;5084975;28;20070;-63
2023/07/12 02:39:28;;;;;;;8.20;2.53;;;;;;;-145.18;100.00;46660.41;5085752;28;20032;-63
2023/07/12 02:41:54;;;;;;;8.97;2.90;;;;;;;-145.18;100.00;46660.41;5088666;28;20103;-63
2023/07/12 02:44:21;;;;;;;9.87;2.97;;;;;;;-145.18;100.00;46658.44;5066933;28;20086;-63
2023/07/12 02:46:47;;;;;;;14.00;3.20;;;;;;;-145.18;100.00;46660.41;5075115;28;20441;-63
2023/07/12 02:49:13;;;;;;;7.57;2.60;;;;;;;-145.18;100.00;46660.41;5079052;28;20051;-63
2023/07/12 02:51:39;;;;;;;6.90;3.17;;;;;;;-145.18;100.00;46660.41;5086569;28;20127;-63
2023/07/12 02:54:04;;;;;;;8.83;2.70;;;;;;;-145.18;100.00;46660.41;5078992;28;20102;-63
2023/07/12 02:56:30;;;;;;;8.60;2.73;;;;;;;-145.18;100.00;46660.41;5086228;28;20040;-63
2023/07/12 02:58:55;;;;;;;7.97;2.40;;;;;;;-145.18;100.00;46660.41;5082031;28;20056;-63
2023/07/12 03:01:21;;;;;;;8.73;3.23;;;;;;;-145.18;100.00;46660.41;5051700;28;20036;-63
2023/07/12 03:03:46;;;;;;;10.23;3.17;;;;;;;-145.18;100.00;46660.41;5045701;28;20797;-63
2023/07/12 03:06:12;;;;;;;13.20;3.00;;;;;;;-145.18;100.00;46658.44;5071805;28;20035;-63
2023/07/12 03:08:38;;;;;;;7.77;3.37;;;;;;;-145.18;100.00;46660.41;5078823;28;20024;-63
2023/07/12 03:11:07;;;;;;;7.53;3.00;;;;;;;-145.18;100.00;46660.41;5078738;28;20024;-63
2023/07/12 03:13:32;;;;;;;7.63;3.10;;;;;;;-145.18;100.00;46660.41;5091694;28;20115;-63
2023/07/12 03:15:58;;;;;;;7.90;2.93;;;;;;;-145.18;100.00;46660.41;5057103;28;20119;-63
2023/07/12 03:18:24;;;;;;;11.53;3.10;;;;;;;-145.18;100.00;46660.41;5083915;28;20038;-63
2023/07/12 03:20:50;;;;;;;8.37;2.63;;;;;;;-145.18;100.00;46660.41;5081666;28;20484;-63
2023/07/12 03:23:17;;;;;;;10.20;3.30;;;;;;;-145.18;100.00;46660.41;5071561;28;20036;-63
2023/07/12 03:25:46;;;;;;;6.57;2.73;;;;;;;-145.18;100.00;46660.41;5053876;28;20071;-63
2023/07/12 03:28:11;;;;;;;10.17;3.43;;;;;;;-145.18;100.00;46660.41;5071475;28;20443;-63
2023/07/12 03:30:37;;;;;;;7.70;3.10;;;;;;;-145.18;100.00;46660.41;5071520;28;20048;-63
2023/07/12 03:33:02;;;;;;;10.27;3.40;;;;;;;-145.18;100.00;46660.41;5062284;28;20032;-63
2023/07/12 03:35:28;;;;;;;9.07;3.93;;;;;;;-145.18;100.00;46660.41;5090183;28;20032;-63
2023/07/12 03:37:53;;;;;;;11.37;4.83;;;;;;;-145.18;100.00;46660.41;5106442;28;20180;-63
2023/07/12 03:40:18;;;;;;;12.33;5.33;;;;;;;-145.18;100.00;46660.41;5084211;28;20071;-63
2023/07/12 03:42:44;;;;;;;11.03;6.33;;;;;;;-145.18;100.00;46660.41;5075463;28;20123;-63
2023/07/12 03:45:10;;;;;;;12.23;6.30;;;;;;;-145.18;100.00;46660.41;5075354;28;20107;-63
2023/07/12 03:47:35;;;;;;;15.33;6.13;;;;;;;-145.18;100.00;46660.41;5082216;28;20051;-63
2023/07/12 03:50:01;;;;;;;12.30;6.30;;;;;;;-145.18;100.00;46660.41;5074915;28;20056;-63
2023/07/12 03:52:26;;;;;;;18.70;6.03;;;;;;;-145.18;100.00;46660.41;5074853;28;20036;-63
2023/07/12 03:54:51;;;;;;;14.40;7.03;;;;;;;-145.18;100.00;46660.41;5076514;28;20114;-63
2023/07/12 03:57:17;;;;;;;12.53;6.63;;;;;;;-145.18;100.00;46660.41;5078189;28;20056;-63
2023/07/12 03:59:42;;;;;;;16.90;7.37;;;;;;;-145.18;100.00;46660.41;5047705;28;20033;-63
2023/07/12 04:02:08;;;;;;;12.27;6.10;;;;;;;-145.18;100.00;46660.41;5062448;28;20427;-63
2023/07/12 04:04:33;;;;;;;11.43;5.93;;;;;;;-145.18;100.00;46660.41;5081017;28;20031;-63
2023/07/12 04:07:00;;;;;;;12.10;5.83;;;;;;;-145.18;100.00;46660.41;5094571;28;20069;-63
2023/07/12 04:09:26;;;;;;;17.07;5.63;;;;;;;-145.18;100.00;46660.41;5099908;28;20028;-63
2023/07/12 04:11:51;;;;;;;12.73;5.43;;;;;;;-145.18;100.00;46660.41;5074482;28;20020;-63
2023/07/12 04:14:17;;;;;;;13.30;6.07;;;;;;;-145.18;100.00;46660.41;5074583;28;20024;-63
2023/07/12 04:16:44;;;;;;;16.63;6.23;;;;;;;-145.18;100.00;46660.41;5074616;28;20029;-63
2023/07/12 04:19:09;;;;;;;11.80;5.43;;;;;;;-145.18;100.00;46660.41;5084407;28;20115;-63
2023/07/12 04:21:35;;;;;;;12.20;5.40;;;;;;;-145.18;100.00;46660.41;5074959;28;20115;-63
2023/07/12 04:24:00;;;;;;;11.40;5.87;;;;;;;-145.18;100.00;46660.41;5074575;28;20459;-63
2023/07/12 04:26:26;;;;;;;12.30;6.10;;;;;;;-145.18;100.00;46660.41;5089922;28;20033;-63
2023/07/12 04:28:52;;;;;;;13.60;6.30;;;;;;;-145.18;100.00;46660.41;5056302;28;20036;-63
2023/07/12 04:31:19;;;;;;;10.27;6.10;;;;;;;-145.18;100.00;46660.41;5087793;28;20111;-63
2023/07/12 04:33:46;;;;;;;10.87;6.00;;;;;;;-145.18;100.00;46660.41;5081450;28;20036;-63
2023/07/12 04:36:14;;;;;;;14.63;5.77;;;;;;;-145.18;100.00;46660.41;5094026;28;20032;-63
2023/07/12 04:38:39;;;;;;;8.27;5.43;;;;;;;-145.18;100.00;46660.41;5085330;28;20057;-63
2023/07/12 04:41:05;;;;;;;13.40;5.17;;;;;;;-145.18;100.00;46660.41;5087663;28;20066;-63
2023/07/12 04:43:31;;;;;;;11.40;5.30;;;;;;;-145.18;100.00;46660.41;5074287;28;20112;-63
2023/07/12 04:45:58;;;;;;;12.67;5.27;;;;;;;-145.18;100.00;46631.09;5055162;28;20120;-63
2023/07/12 04:48:23;;;;;;;12.57;4.80;;;;;;;-145.18;100.00;46660.41;5074386;28;20052;-63
2023/07/12 04:50:53;;;;;;;12.93;5.10;;;;;;;-145.18;100.00;46660.41;5102862;28;20115;-63
2023/07/12 04:53:19;;;;;;;12.77;5.30;;;;;;;-145.18;100.00;46660.41;5077665;28;20044;-63
2023/07/12 04:55:45;;;;;;;12.43;4.97;;;;;;;-145.18;100.00;46660.41;5062246;28;20028;-63
2023/07/12 04:58:11;;;;;;;15.17;5.20;;;;;;;-145.18;100.00;46633.06;5079350;28;20113;-63
2023/07/12 05:00:36;;;;;;;8.10;4.80;;;;;;;-145.18;100.00;46633.06;5087420;28;20020;-63
2023/07/12 05:03:02;;;;;;;10.37;4.77;;;;;;;-145.18;100.00;46633.06;5079175;28;20035;-63
2023/07/12 05:05:28;;;;;;;9.93;5.03;;;;;;;-145.18;100.00;46660.41;5070337;28;20039;-63
2023/07/12 05:07:53;;;;;;;11.00;4.97;;;;;;;-145.18;100.00;46631.09;5076096;28;20312;-63
2023/07/12 05:10:18;;;;;;;13.87;4.93;;;;;;;-145.18;100.00;46660.41;5071586;28;20028;-63
2023/07/12 05:12:44;;;;;;;10.67;4.93;;;;;;;-145.18;100.00;46660.41;5060994;28;20124;-63
2023/07/12 05:15:11;;;;;;;11.73;4.70;;;;;;;-145.18;100.00;46631.09;5075786;28;20036;-63
2023/07/12 05:17:38;;;;;;;10.57;5.00;;;;;;;-145.18;100.00;46660.41;5074181;28;20032;-63
2023/07/12 05:20:05;;;;;;;16.57;5.73;;;;;;;-145.18;100.00;46636.94;5073095;28;20041;-63
2023/07/12 05:22:31;;;;;;;13.63;5.67;;;;;;;-145.18;100.00;46660.41;5088130;28;20029;-63
2023/07/12 05:24:57;;;;;;;11.53;5.77;;;;;;;-145.18;100.00;46631.09;5073156;28;20031;-63
2023/07/12 05:27:23;;;;;;;17.80;5.03;;;;;;;-145.18;100.00;46636.94;5092334;28;20484;-63
2023/07/12 05:29:48;;;;;;;13.30;5.30;;;;;;;-145.18;100.00;46633.06;5074182;28;20055;-63
2023/07/12 05:32:14;;;;;;;9.13;4.57;;;;;;;-145.18;100.00;46635.00;5087240;28;20040;-63
2023/07/12 05:34:41;;;;;;;9.50;4.87;;;;;;;-145.18;100.00;46636.94;5077434;28;20060;-63
2023/07/12 05:37:07;;;;;;;10.47;4.60;;;;;;;-145.18;100.00;46633.06;5080798;28;20441;-63
2023/07/12 05:39:32;;;;;;;12.33;4.30;;;;;;;-145.18;100.00;46629.13;5080855;28;20032;-63
2023/07/12 05:41:58;;;;;;;9.93;4.07;;;;;;;-145.18;100.00;46635.00;5081393;28;20090;-63
2023/07/12 05:44:23;;;;;;;9.63;4.30;;;;;;;-145.18;100.00;46633.06;5078143;28;20071;-68
2023/07/12 05:46:48;;;;;;;9.33;4.47;;;;;;;-145.18;100.00;46635.00;5073963;28;20028;-69
2023/07/12 05:49:14;;;;;;;11.80;4.77;;;;;;;-145.18;100.00;46635.00;5068699;28;20755;-69
2023/07/12 05:51:39;;;;;;;8.87;4.23;;;;;;;-145.18;100.00;46629.13;5068318;28;20034;-68
2023/07/12 05:54:05;;;;;;;8.97;4.30;;;;;;;-145.18;100.00;46635.00;5056759;28;20036;-69
2023/07/12 05:56:30;;;;;;;11.10;4.30;;;;;;;-145.18;100.00;46633.06;5083635;28;20054;-69
2023/07/12 05:58:55;;;;;;;10.47;4.27;;;;;;;-145.18;100.00;46633.06;5099441;28;20060;-69
2023/07/12 06:01:21;;;;;;;12.13;4.47;;;;;;;-145.18;100.00;46631.09;5078195;28;20032;-69
2023/07/12 06:03:46;;;;;;;9.70;4.27;;;;;;;-145.18;100.00;46636.94;5076772;28;20111;-69
2023/07/12 06:06:12;;;;;;;17.20;4.23;;;;;;;-145.18;100.00;46638.91;5085576;28;20035;-69
2023/07/12 06:08:38;;;;;;;12.57;4.63;;;;;;;-145.18;100.00;46636.94;5076186;28;20036;-69
2023/07/12 06:11:04;;;;;;;10.20;5.13;;;;;;;-145.18;100.00;46636.94;5074918;28;20070;-69
2023/07/12 06:13:30;;;;;;;11.27;4.03;;;;;;;-145.18;100.00;46633.06;5084261;28;20030;-69
2023/07/12 06:15:55;;;;;;;11.27;4.60;;;;;;;-145.18;100.00;46636.94;5084375;28;20052;-69
2023/07/12 06:18:21;;;;;;;15.23;4.67;;;;;;;-145.18;100.00;46638.91;5075603;28;20438;-69
2023/07/12 06:20:54;;;;;;;9.73;3.87;;;;;;;-145.18;100.00;46636.94;5078124;28;20032;-69
2023/07/12 06:23:19;;;;;;;10.00;4.80;;;;;;;-145.18;100.00;46636.94;5081983;28;20033;-69
2023/07/12 06:25:45;;;;;;;10.73;3.87;;;;;;;-145.18;100.00;46636.94;5083910;28;20039;-69
2023/07/12 06:28:10;;;;;;;11.37;4.07;;;;;;;-145.18;100.00;46638.91;5059432;28;20506;-69
2023/07/12 06:30:36;;;;;;;10.40;3.63;;;;;;;-145.18;100.00;46636.94;5082033;28;20073;-70
2023/07/12 06:33:01;;;;;;;11.77;4.27;;;;;;;-145.18;100.00;46636.94;5083404;28;20051;-70
2023/07/12 06:35:26;;;;;;;9.87;4.00;;;;;;;-145.18;100.00;46636.94;5071933;28;20028;-70
2023/07/12 06:37:52;;;;;;;15.17;3.90;;;;;;;-145.18;100.00;46636.94;5072218;28;20039;-69
2023/07/12 06:40:17;;;;;;;8.10;4.23;;;;;;;-145.18;100.00;46638.91;5076988;28;20067;-70
2023/07/12 06:42:42;;;;;;;6.17;3.53;;;;;;;-145.18;100.00;46633.06;5072102;28;20044;-71
2023/07/12 06:45:08;;;;;;;11.60;4.47;;;;;;;-145.18;100.00;46633.06;5091652;28;20115;-71
2023/07/12 06:47:33;;;;;;;8.70;4.10;;;;;;;-145.18;100.00;46635.00;5075026;28;20472;-70
2023/07/12 06:49:59;;;;;;;13.73;4.37;;;;;;;-145.18;100.00;46635.00;5080365;28;20028;-70
2023/07/12 06:52:24;;;;;;;10.80;4.47;;;;;;;-145.18;100.00;46635.00;5075044;28;20473;-69
2023/07/12 06:54:50;;;;;;;11.63;4.10;;;;;;;-145.18;100.00;46635.00;5078742;28;20035;-63
2023/07/12 06:57:15;;;;;;;10.90;3.80;;;;;;;-145.18;100.00;46635.00;5081722;28;20054;-63
2023/07/12 06:59:40;;;;;;;11.67;4.47;;;;;;;-145.18;100.00;46635.00;5071015;28;20047;-63
2023/07/12 07:02:09;;;;;;;12.47;3.73;;;;;;;-145.18;100.00;46633.06;5074760;28;20032;-63
2023/07/12 07:04:34;;;;;;;10.63;3.73;;;;;;;-145.18;100.00;46633.06;5081930;28;20406;-63
2023/07/12 07:07:00;;;;;;;13.53;4.03;;;;;;;-145.18;100.00;46635.00;5098739;28;20119;-63
2023/07/12 07:09:25;;;;;;;10.47;3.63;;;;;;;-145.18;100.00;46633.06;5081748;28;20027;-63
2023/07/12 07:11:51;;;;;;;13.37;3.97;;;;;;;-145.18;100.00;46635.00;5072513;28;20035;-63
2023/07/12 07:14:16;;;;;;;13.10;3.53;;;;;;;-145.18;100.00;46633.06;5073627;28;20109;-63
2023/07/12 07:16:42;;;;;;;13.40;3.53;;;;;;;-145.18;100.00;46636.94;5084393;28;20035;-64
2023/07/12 07:19:08;;;;;;;8.10;3.30;;;;;;;-145.18;100.00;46636.94;5083792;28;20035;-64
2023/07/12 07:21:33;;;;;;;14.33;3.60;;;;;;;-145.18;100.00;46644.78;5079054;28;20033;-63
2023/07/12 07:23:58;;;;;;;12.97;3.73;;;;;;;-145.18;100.00;46640.88;5079148;28;20041;-63
2023/07/12 07:26:24;;;;;;;14.13;3.23;;;;;;;-145.18;100.00;46638.91;5058730;28;20119;-63
2023/07/12 07:28:49;;;;;;;10.17;3.10;;;;;;;-145.18;100.00;46640.88;5076358;28;20028;-63
2023/07/12 07:31:15;;;;;;;11.30;3.40;;;;;;;-145.18;100.00;46638.91;5078657;28;20124;-63
2023/07/12 07:33:40;;;;;;;10.67;3.87;;;;;;;-145.18;100.00;46640.88;5065435;28;20545;-63
2023/07/12 07:36:08;;;;;;;12.10;4.03;;;;;;;-145.18;100.00;46640.88;5089017;28;20035;-63
2023/07/12 07:38:35;;;;;;;11.47;3.53;;;;;;;-145.18;100.00;46648.69;5075541;28;20063;-63
2023/07/12 07:41:04;;;;;;;12.27;3.40;;;;;;;-145.18;100.00;46648.69;5087747;28;20189;-63
2023/07/12 07:43:29;;;;;;;12.20;3.60;;;;;;;-145.18;100.00;46652.59;5070991;28;20476;-63
2023/07/12 07:45:55;;;;;;;8.17;3.87;;;;;;;-145.18;100.00;46652.59;5080452;28;20081;-63
2023/07/12 07:48:20;;;;;;;11.77;3.83;;;;;;;-145.18;100.00;46656.50;5074736;28;20496;-63
2023/07/12 07:50:46;;;;;;;12.50;3.37;;;;;;;-145.18;100.00;46652.59;5095105;28;20043;-64
2023/07/12 07:53:11;;;;;;;10.90;3.63;;;;;;;-145.18;100.00;46660.41;5075662;28;20389;-63
2023/07/12 07:55:43;;;;;;;11.63;3.53;;;;;;;-145.18;100.00;46652.59;5080801;28;20074;-63
2023/07/12 07:58:09;;;;;;;9.03;2.83;;;;;;;-145.18;100.00;46658.44;5075743;28;20055;-64
2023/07/12 08:00:36;;;;;;;11.97;3.33;;;;;;;-145.18;100.00;46664.31;5074621;28;20034;-64
2023/07/12 08:03:02;;;;;;;13.57;3.50;;;;;;;-145.18;100.00;46652.59;5077210;28;20480;-64
2023/07/12 08:05:27;;;;;;;9.83;3.20;;;;;;;-145.18;100.00;46660.41;5077684;28;20024;-69
2023/07/12 08:07:53;;;;;;;11.93;3.27;;;;;;;-145.18;100.00;46660.41;5077021;28;20032;-69
2023/07/12 08:10:18;;;;;;;8.97;3.23;;;;;;;-145.18;100.00;46660.41;5059370;28;20541;-69
2023/07/12 08:12:45;;;;;;;13.20;3.37;;;;;;;-145.18;100.00;46664.31;5100236;28;20063;-69
2023/07/12 08:15:10;;;;;;;14.93;5.40;;;;;;;-145.18;100.00;46666.25;5073994;28;20028;-69
2023/07/12 08:17:37;;;;;;;13.03;4.20;;;;;;;-145.18;100.00;46668.22;5077324;28;20025;-69
2023/07/12 08:20:04;;;;;;;8.70;3.23;;;;;;;-145.18;100.00;46672.13;5075373;28;20114;-69
2023/07/12 08:22:30;;;;;;;9.60;3.47;;;;;;;-145.18;100.00;46672.13;5072357;28;20031;-69
2023/07/12 08:24:56;;;;;;;11.20;3.07;;;;;;;-145.18;100.00;46672.13;5072826;28;20043;-70
2023/07/12 08:27:21;;;;;;;12.57;3.17;;;;;;;-145.18;100.00;46670.16;5074263;28;20077;-69
2023/07/12 08:29:46;;;;;;;8.13;3.20;;;;;;;-145.18;100.00;46672.13;5078840;28;20028;-70
2023/07/12 08:32:12;;;;;;;11.70;3.47;;;;;;;-145.18;100.00;46674.06;5088205;28;20438;-69
2023/07/12 08:34:38;;;;;;;9.93;2.83;;;;;;;-145.18;100.00;46664.31;5095478;28;20408;-69
2023/07/12 08:37:04;;;;;;;16.30;3.57;;;;;;;-145.18;100.00;46668.22;5077227;28;20163;-69
2023/07/12 08:39:30;;;;;;;8.10;3.57;;;;;;;-145.18;100.00;46656.50;5085887;28;20641;-69
2023/07/12 08:41:56;;;;;;;8.87;3.07;;;;;;;-145.18;100.00;46642.81;5067843;28;20028;-69
2023/07/12 08:44:22;;;;;;;9.23;3.20;;;;;;;-145.18;100.00;46590.06;5077915;28;20065;-69
2023/07/12 08:46:58;;;;;;;14.57;3.70;;;;;;;-145.18;100.00;46584.22;5080697;28;20044;-69
2023/07/12 08:49:25;;;;;;;10.00;3.40;;;;;;;-145.18;100.00;46549.06;5084901;28;20028;-69
2023/07/12 08:52:05;;;;;;;9.67;3.13;;;;;;;-145.18;100.00;46554.91;5073144;28;20048;-69
2023/07/12 08:54:34;;;;;;;11.07;3.20;;;;;;;-145.18;100.00;46592.03;5075156;28;20028;-69
2023/07/12 08:57:17;;;;;;;9.03;3.50;;;;;;;-145.18;100.00;46592.03;5078263;28;20057;-69
2023/07/12 08:59:48;;;;;;;11.70;3.20;;;;;;;-145.18;100.00;46597.88;5074465;28;20036;-69
2023/07/12 09:02:22;;;;;;;10.57;2.60;;;;;;;-145.18;100.00;46549.06;5076649;28;20035;-69
2023/07/12 09:04:48;;;;;;;11.57;3.30;;;;;;;-145.18;100.00;46549.06;5082169;28;20028;-76
2023/07/12 09:07:23;;;;;;;11.77;2.97;;;;;;;-145.18;100.00;46654.53;5081319;28;20031;-74
2023/07/12 09:09:49;;;;;;;8.43;2.65;;;;;;;-145.18;100.00;46676.03;5065273;28;20081;-72
2023/07/12 09:12:25;;;;;;;8.10;2.30;;;;;;;-145.18;100.00;46672.13;5083975;28;20317;-71
2023/07/12 09:14:58;;;;;;;;;;;;;;;-145.18;100.00;46658.44;5088293;28;20024;-64
2023/07/12 09:17:27;;;;;;;9.33;2.73;;;;;;;-145.18;100.00;46650.63;5073572;28;20010;-64
2023/07/12 09:19:53;;;;;;;9.33;2.90;;;;;;;-145.18;100.00;46644.78;5072888;28;20032;-64
2023/07/12 09:22:19;;;;;;;6.87;2.63;;;;;;;-145.18;100.00;46640.88;5076643;28;20027;-64
2023/07/12 09:24:51;;;;;;;10.77;2.93;;;;;;;-145.18;100.00;46638.91;5073109;28;20479;-64
2023/07/12 09:27:19;;;;;;;8.37;2.87;;;;;;;-145.18;100.00;46638.91;5073171;28;20016;-63
2023/07/12 09:29:45;;;;;;;13.03;3.17;;;;;;;-145.18;100.00;46640.88;5077317;28;20035;-62
2023/07/12 09:32:19;;;;;;;5.60;1.80;;;;;;;-145.18;100.00;46640.88;5076829;28;20029;-63
2023/07/12 09:34:47;;;;;;;6.13;1.67;;;;;;;-145.18;100.00;46640.88;5075702;28;20039;-63
2023/07/12 09:37:16;;;;;;;7.20;1.80;;;;;;;-145.18;100.00;46636.94;5072234;28;20040;-63
2023/07/12 09:39:53;;;;;;;6.67;1.77;;;;;;;-145.18;100.00;46635.00;5058990;28;20024;-63
2023/07/12 09:42:18;;;;;;;8.43;1.97;;;;;;;-145.18;100.00;46638.91;5072848;28;20055;-64
2023/07/12 09:44:47;;;;;;;7.07;2.37;;;;;;;-145.18;100.00;46642.81;5072544;28;20403;-63
2023/07/12 09:47:34;;;;;;;6.03;1.70;;;;;;;-145.18;100.00;46642.81;5072615;28;20034;-64
2023/07/12 09:50:21;;;;;;;4.73;2.13;;;;;;;-145.18;100.00;46646.72;5064777;28;20020;-63
2023/07/12 09:53:00;;;;;;;10.27;2.63;;;;;;;-145.18;100.00;46650.63;5072855;28;20036;-63
2023/07/12 09:55:32;;;;;;;3.23;1.73;;;;;;;-145.18;100.00;46654.53;5076613;28;20047;-63
2023/07/12 09:57:57;;;;;;;8.03;2.13;;;;;;;-145.18;100.00;46658.44;5076990;28;20138;-63
2023/07/12 10:00:37;;;;;;;7.97;2.13;;;;;;;-145.18;100.00;46666.25;5083748;28;20473;-63
2023/07/12 10:03:34;;;;;;;6.87;2.63;;;;;;;-145.18;100.00;46670.16;5073153;28;20043;-63
2023/07/12 10:06:10;;;;;;;7.60;2.40;;;;;;;-145.18;100.00;46674.06;5072133;28;20042;-63
2023/07/12 10:08:46;;;;;;;7.47;3.00;;;;;;;-145.18;100.00;46676.03;5086471;28;20093;-63
2023/07/12 10:11:31;;;;;;;9.93;2.73;;;;;;;-145.18;100.00;46674.06;5082928;28;20024;-64
2023/07/12 10:14:02;;;;;;;10.88;2.92;;;;;;;-145.18;100.00;46658.44;5081122;28;20036;-63
2023/07/12 10:16:34;;;;;;;16.87;3.07;;;;;;;-145.18;100.00;46642.81;5084550;28;20039;-63
2023/07/12 10:19:12;;;;;;;10.27;3.23;;;;;;;-145.18;100.00;46603.75;5078634;28;20025;-63
2023/07/12 10:21:39;;;;;;;8.70;3.37;;;;;;;-145.18;100.00;46539.28;5074548;28;20047;-63
2023/07/12 10:24:06;;;;;;;7.77;2.63;;;;;;;-145.18;100.00;46537.34;5072353;28;20043;-64
2023/07/12 10:26:34;;;;;;;8.37;3.33;;;;;;;-145.18;100.00;46549.06;5089667;28;20025;-70
2023/07/12 10:29:16;;;;;;;10.20;2.60;;;;;;;-145.18;100.00;46539.28;5053949;28;20535;-70
2023/07/12 10:31:48;;;;;;;6.77;2.97;;;;;;;-145.18;100.00;46568.59;5070997;28;20122;-70
2023/07/12 10:34:25;;;;;;;9.87;1.80;;;;;;;-145.18;100.00;46549.06;5077698;28;20024;-70
2023/07/12 10:36:54;;;;;;;4.20;1.20;;;;;;;-145.18;100.00;46558.81;5071087;28;20106;-70
2023/07/12 10:39:24;;;;;;;4.53;1.57;;;;;;;-145.18;100.00;46552.97;5084198;28;20100;-69
2023/07/12 10:41:55;;;;;;;4.90;1.77;;;;;;;-145.18;100.00;46547.09;5068283;28;20035;-70
2023/07/12 10:44:26;;;;;;;5.93;1.63;;;;;;;-145.18;100.00;46549.06;5080344;28;20384;-70
2023/07/12 10:46:56;;;;;;;6.83;1.80;;;;;;;-145.18;100.00;46551.00;5082374;28;20024;-70
2023/07/12 10:49:44;;;;;;;4.10;1.33;;;;;;;-145.18;100.00;46523.66;5075055;28;20020;-70
2023/07/12 10:52:09;;;;;;;6.47;1.50;;;;;;;-145.18;100.00;46551.00;5075795;28;20028;-70
2023/07/12 10:54:34;;;;;;;6.73;1.70;;;;;;;-145.18;100.00;46547.09;5077901;28;20036;-70
2023/07/12 10:57:27;;;;;;;3.73;1.53;;;;;;;-145.18;100.00;46554.91;5081461;28;20040;-70
2023/07/12 11:00:16;;;;;;;6.03;1.57;;;;;;;-145.18;100.00;46535.38;5071410;28;20048;-70
2023/07/12 11:02:48;;;;;;;8.27;2.23;;;;;;;-145.18;100.00;46537.34;5077466;28;20020;-70
2023/07/12 11:05:43;;;;;;;3.83;1.57;;;;;;;-145.18;100.00;46580.31;5074992;28;20523;-70
2023/07/12 11:08:31;;;;;;;4.40;1.33;;;;;;;-145.18;100.00;46568.59;5083271;28;20313;-70
2023/07/12 11:11:20;;;;;;;5.47;1.70;;;;;;;-145.18;100.00;46547.09;5070581;28;20118;-70